Main page
METAR-TAF:

METAR-TAF

Airports :

Évreux-Fauville Air Base

Évreux, France

latitude: 49-01N, longitude: 001-13E, elevation: 141 m

Current weather observation

The report was made 42 minutes ago, at 04:00 UTC
Wind 2 kt from variable directions
Temperature 15°C
Humidity 100%
Pressure 1017 hPa
Visibility: 0150 m
fog

METAR: LFOE 220400Z AUTO VRB02KT 0200 0150 R22/0325N FG VV/// 15/15 Q1017 BECMG 0100 FG

Time: 06:42 (04:42 UTC)

Forecast

The report was made 2 hours and 42 minutes ago, at 02:00 UTC
Forecast valid from 22 at 03 UTC to 23 at 03 UTC
Wind 5 kt from the West
Visibility: 0100 m
fog
Becoming
from 22 at 07 UTC to 22 at 09 UTC
Visibility 10 km or more
no clouds below 1500 m and no cumulonimbus

TAF: LFOE 220200Z 2203/2303 27005KT 0100 FG VV/// BECMG 2207/2209 CAVOK

Weather observations and forecasts of more than 4000 airports (METAR and TAF reports).

The available stations are represented by yellow and red dots on the map.

Hover mouse over dot to see the name of the station.

Then click to see weather observations and forecasts.

To change the map : click on the green buttons with a black cross to zoom in, on the green button with a dash to zoom out, or on the green arrows for adjacent maps.


METAR-TAF: